Time;durP1;ratioP1;P1;durP2;ratioP2;P2;SDS_P1;SDS_P2;PMS_P1;PMS_P2;Temp;Humidity;BMP_temperature;BMP_pressure;BME280_temperature;BME280_humidity;BME280_pressure;Samples;Min_cycle;Max_cycle;Signal;HPM_P1;HPM_P2
2024/03/15 00:07:26;;;;;;;3.43;1.30;;;;;;;12.12;69.35;94954.69;4868837;29;20562;-87
2024/03/15 00:10:03;;;;;;;2.77;1.43;;;;;;;12.09;69.34;94958.47;4867065;29;20286;-87
2024/03/15 00:18:16;;;;;;;2.13;1.40;;;;;;;12.13;69.46;94961.41;4860830;29;20214;-88
2024/03/15 00:21:14;;;;;;;1.30;1.20;;;;;;;12.13;69.68;94962.22;4863943;29;20840;-89
2024/03/15 00:24:10;;;;;;;;;;;;;;;;;;;;;
2024/03/15 00:26:49;;;;;;;10.77;9.63;;;;;;;12.10;69.59;94966.00;4868126;29;20234;-87
2024/03/15 00:32:36;;;;;;;1.30;1.20;;;;;;;11.98;70.10;94977.13;4866544;29;20207;-89
2024/03/15 00:35:04;;;;;;;1.40;1.30;;;;;;;12.02;69.86;94965.41;4876951;29;20227;-89
2024/03/15 00:37:54;;;;;;;1.30;1.20;;;;;;;11.98;69.80;94961.63;4856652;29;20213;-89
2024/03/15 00:40:41;;;;;;;1.87;1.40;;;;;;;11.94;70.02;94968.97;4866372;29;20244;-87
2024/03/15 00:43:17;;;;;;;1.13;1.03;;;;;;;11.95;70.00;94962.03;4866518;29;20772;-89
2024/03/15 00:45:46;;;;;;;1.40;1.30;;;;;;;11.96;70.00;94966.22;4862713;29;20237;-89
2024/03/15 00:48:48;;;;;;;1.70;1.30;;;;;;;11.87;70.43;94962.25;4861033;29;20223;-89
2024/03/15 00:51:35;;;;;;;1.07;1.03;;;;;;;11.87;70.31;94973.38;4871871;29;20514;-89
2024/03/15 00:54:09;;;;;;;1.30;1.20;;;;;;;11.82;70.30;94982.69;4872474;29;20230;-89
2024/03/15 00:56:51;;;;;;;1.23;1.13;;;;;;;11.82;70.78;94967.22;4857685;29;20227;-89
2024/03/15 01:02:27;;;;;;;;;;;;;;;;;;;;;
2024/03/15 01:05:01;;;;;;;1.40;1.30;;;;;;;11.79;70.53;94963.25;4855813;29;20211;-90
2024/03/15 01:10:40;;;;;;;1.53;1.37;;;;;;;11.80;70.63;94961.47;4856437;29;20226;-89
2024/03/15 01:13:18;;;;;;;2.80;1.40;;;;;;;11.80;70.73;94962.25;4863722;29;20214;-89
2024/03/15 01:18:36;;;;;;;1.63;1.37;;;;;;;11.77;70.48;94965.22;4863144;29;20231;-89
2024/03/15 01:21:14;;;;;;;1.53;1.30;;;;;;;11.76;70.41;94955.91;4862393;29;20259;-89
2024/03/15 01:26:45;;;;;;;1.60;1.43;;;;;;;11.75;70.74;94943.97;4863790;29;20793;-89
2024/03/15 01:29:39;;;;;;;1.23;1.00;;;;;;;11.75;70.35;94944.75;4879497;29;20234;-89
2024/03/15 01:32:16;;;;;;;1.30;1.20;;;;;;;11.78;70.26;94951.34;4857414;29;20238;-89
2024/03/15 01:35:16;;;;;;;1.20;1.00;;;;;;;11.72;70.54;94950.34;4861211;29;20202;-89
2024/03/15 01:38:16;;;;;;;2.13;1.03;;;;;;;11.73;70.19;94951.94;4878275;29;20215;-89
2024/03/15 01:40:52;;;;;;;1.07;0.97;;;;;;;11.68;70.24;94940.63;4864793;29;20210;-89
2024/03/15 01:43:29;;;;;;;2.40;1.17;;;;;;;11.65;70.06;94944.38;4877768;29;20214;-89
2024/03/15 01:46:08;;;;;;;1.30;1.20;;;;;;;11.63;70.26;94941.19;4864366;29;20313;-87
2024/03/15 01:48:48;;;;;;;1.10;1.00;;;;;;;11.64;70.53;94958.25;4850142;29;20321;-88
2024/03/15 01:51:30;;;;;;;1.23;1.13;;;;;;;11.66;70.21;94950.31;4893721;29;20217;-87
2024/03/15 01:54:14;;;;;;;1.17;1.00;;;;;;;11.64;70.31;94944.56;4890616;29;20753;-86
2024/03/15 01:56:53;;;;;;;1.10;1.00;;;;;;;11.69;70.30;94939.63;4891132;29;20593;-87
2024/03/15 02:05:36;;;;;;;1.30;1.20;;;;;;;11.70;69.92;94934.25;4889578;29;20835;-88
2024/03/15 02:17:29;;;;;;;1.30;1.00;;;;;;;11.80;69.33;94921.00;4889677;29;20262;-87
2024/03/15 02:20:18;;;;;;;1.17;1.00;;;;;;;11.84;68.99;94914.44;4880608;29;20227;-87
2024/03/15 02:22:54;;;;;;;1.37;1.27;;;;;;;11.87;68.92;94918.41;4890180;29;20670;-87
2024/03/15 02:25:28;;;;;;;1.00;0.90;;;;;;;11.89;68.80;94911.25;4892084;29;20210;-87
2024/03/15 02:31:49;;;;;;;;;;;;;;;;;;;;;
2024/03/15 02:34:32;;;;;;;1.10;1.00;;;;;;;11.85;68.68;94905.72;4889705;29;20210;-88
2024/03/15 02:40:29;;;;;;;1.00;0.90;;;;;;;11.81;68.26;94876.16;4854024;29;20241;-87
2024/03/15 02:43:02;;;;;;;1.40;1.00;;;;;;;11.77;68.03;94874.97;4830557;29;20225;-88
2024/03/15 02:54:14;;;;;;;2.90;1.10;;;;;;;11.75;67.72;94871.75;4825309;29;20213;-89
2024/03/15 02:59:30;;;;;;;1.43;1.20;;;;;;;11.73;67.93;94881.50;4864643;29;20299;-89
2024/03/15 03:04:49;;;;;;;1.03;1.03;;;;;;;11.71;67.41;94863.66;4867149;29;20286;-89
2024/03/15 03:07:22;;;;;;;1.73;1.10;;;;;;;11.70;67.63;94876.75;4865473;29;20231;-89
2024/03/15 03:10:11;;;;;;;1.10;1.00;;;;;;;11.74;67.62;94880.47;4865154;29;20234;-89
2024/03/15 03:12:55;;;;;;;2.13;2.03;;;;;;;11.71;67.75;94879.13;4859073;29;20259;-89
2024/03/15 03:15:36;;;;;;;1.30;1.10;;;;;;;11.67;66.95;94854.72;4863890;29;20210;-89
2024/03/15 03:18:22;;;;;;;2.40;1.30;;;;;;;11.63;67.17;94852.75;4879970;29;20222;-90
2024/03/15 03:26:28;;;;;;;1.40;1.30;;;;;;;11.56;66.88;94847.59;4866119;29;20292;-90
2024/03/15 03:35:21;;;;;;;1.20;1.10;;;;;;;11.69;66.63;94854.53;4833064;29;20206;-89
2024/03/15 03:38:42;;;;;;;1.17;1.07;;;;;;;11.67;66.52;94846.19;4878992;29;20293;-89
2024/03/15 03:44:17;;;;;;;1.23;1.13;;;;;;;11.67;66.52;94838.47;4863433;29;20270;-89
2024/03/15 03:47:09;;;;;;;;;;;;;;;;;;;;;
2024/03/15 03:49:53;;;;;;;;;;;;;;;;;;;;;
2024/03/15 03:52:55;;;;;;;1.23;1.03;;;;;;;11.67;66.17;94841.84;4867308;29;20576;-89
2024/03/15 04:01:57;;;;;;;;;;;;;;;;;;;;;
2024/03/15 04:04:29;;;;;;;2.80;1.43;;;;;;;11.71;65.90;94829.34;4839187;29;20203;-88
2024/03/15 04:09:47;;;;;;;3.20;1.37;;;;;;;11.72;65.77;94821.41;4859454;29;20231;-89
2024/03/15 04:12:27;;;;;;;1.40;1.30;;;;;;;11.80;65.90;94829.94;4878615;29;20654;-89
2024/03/15 04:15:05;;;;;;;1.40;1.30;;;;;;;11.82;65.88;94825.34;4863259;29;20207;-88
2024/03/15 04:23:26;;;;;;;1.93;1.50;;;;;;;11.85;65.94;94824.97;4859778;29;20270;-89
2024/03/15 04:26:14;;;;;;;5.43;2.00;;;;;;;11.85;65.75;94822.38;4863111;29;20232;-90
2024/03/15 04:34:37;;;;;;;1.80;1.30;;;;;;;11.91;65.59;94817.22;4865639;29;20570;-86
2024/03/15 04:40:00;;;;;;;3.00;1.60;;;;;;;11.94;65.70;94826.31;4864892;29;20226;-87
2024/03/15 04:42:33;;;;;;;2.03;1.50;;;;;;;11.92;65.67;94829.13;4861557;29;20207;-87
2024/03/15 04:48:16;;;;;;;4.33;1.50;;;;;;;11.90;65.96;94843.22;4822925;29;20239;-89
2024/03/15 04:50:59;;;;;;;4.67;1.67;;;;;;;11.87;66.05;94854.72;4841710;29;20237;-89
2024/03/15 04:53:37;;;;;;;3.63;1.90;;;;;;;11.83;66.08;94843.22;4847177;29;20665;-87
2024/03/15 04:56:30;;;;;;;3.13;1.40;;;;;;;11.84;66.07;94855.13;4846075;29;20235;-89
2024/03/15 04:59:15;;;;;;;1.80;1.30;;;;;;;11.79;65.93;94848.97;4811357;29;20229;-89
2024/03/15 05:02:00;;;;;;;2.00;1.43;;;;;;;11.79;66.20;94854.94;4842994;29;20219;-87
2024/03/15 05:04:43;;;;;;;1.97;1.43;;;;;;;11.75;65.86;94857.06;4842356;29;20208;-90
2024/03/15 05:07:28;;;;;;;;;;;;;;;;;;;;;
2024/03/15 05:13:07;;;;;;;1.50;1.40;;;;;;;11.73;66.46;94864.25;4874032;29;20202;-90
2024/03/15 05:16:02;;;;;;;;;;;;;;;;;;;;;
2024/03/15 05:18:41;;;;;;;3.10;1.63;;;;;;;11.72;66.93;94891.03;4864663;29;20218;-90
2024/03/15 05:21:33;;;;;;;1.50;1.30;;;;;;;11.69;66.81;94893.22;4864000;29;20357;-90
2024/03/15 05:24:16;;;;;;;1.63;1.43;;;;;;;11.68;67.14;94900.16;4865913;29;20229;-90
2024/03/15 05:26:47;;;;;;;3.13;1.60;;;;;;;11.74;66.29;94877.91;4863689;29;21005;-90
2024/03/15 05:29:37;;;;;;;2.13;1.30;;;;;;;11.75;66.54;94887.22;4877692;29;20223;-88
2024/03/15 05:32:24;;;;;;;2.83;1.40;;;;;;;11.77;66.14;94875.75;4864809;29;20257;-90
2024/03/15 05:37:55;;;;;;;3.33;1.60;;;;;;;11.81;65.97;94867.63;4853430;29;20212;-87
2024/03/15 05:40:44;;;;;;;;;;;;;;;;;;;;;
2024/03/15 05:43:24;;;;;;;2.10;1.40;;;;;;;11.84;65.75;94854.31;4866465;29;20664;-90
2024/03/15 05:49:35;;;;;;;2.30;1.60;;;;;;;11.86;65.18;94845.41;4865174;29;20225;-87
2024/03/15 05:54:56;;;;;;;2.73;1.50;;;;;;;11.89;64.86;94832.09;4810609;29;20568;-87
2024/03/15 06:03:19;;;;;;;2.83;1.43;;;;;;;11.96;64.59;94826.91;4857749;29;20215;-89
2024/03/15 06:09:00;;;;;;;4.80;1.60;;;;;;;12.01;64.56;94832.25;4863648;29;20241;-89
2024/03/15 06:11:58;;;;;;;;;;;;;;;;;;;;;
2024/03/15 06:14:47;;;;;;;2.30;1.40;;;;;;;12.05;64.38;94823.91;4869747;29;20198;-90
2024/03/15 06:17:29;;;;;;;2.87;1.50;;;;;;;12.07;64.27;94821.91;4880146;29;20259;-89
2024/03/15 06:23:02;;;;;;;1.60;1.40;;;;;;;12.14;63.49;94796.06;4869997;29;20246;-86
2024/03/15 06:28:25;;;;;;;2.90;1.23;;;;;;;12.18;63.60;94797.25;4874021;29;20238;-93
2024/03/15 06:31:04;;;;;;;1.90;1.40;;;;;;;12.20;63.14;94773.81;4887003;29;20203;-89
2024/03/15 06:36:44;;;;;;;1.43;1.33;;;;;;;12.29;62.71;94754.53;4866656;29;20349;-89
2024/03/15 06:42:59;;;;;;;2.33;1.30;;;;;;;12.62;61.77;94734.44;4853008;29;20215;-89
2024/03/15 06:45:44;;;;;;;3.43;1.73;;;;;;;12.86;61.56;94721.75;4882761;29;20207;-90
2024/03/15 06:53:55;;;;;;;2.83;1.37;;;;;;;13.26;60.59;94691.22;4910286;29;20197;-90
2024/03/15 06:56:32;;;;;;;3.13;1.53;;;;;;;13.31;60.29;94676.63;4913499;29;20190;-90
2024/03/15 06:59:15;;;;;;;5.20;2.00;;;;;;;13.44;60.28;94648.03;4898384;29;20704;-90
2024/03/15 07:01:55;;;;;;;1.83;1.47;;;;;;;13.65;58.79;94613.19;4886733;29;20567;-90
2024/03/15 07:04:51;;;;;;;3.47;1.63;;;;;;;13.94;58.06;94570.16;4877828;29;20290;-88
2024/03/15 07:07:26;;;;;;;3.10;1.60;;;;;;;14.27;58.13;94574.03;4886795;29;20238;-87
2024/03/15 07:10:09;;;;;;;1.30;1.20;;;;;;;14.35;56.31;94483.09;4868580;29;20222;-87
2024/03/15 07:13:06;;;;;;;3.05;1.38;;;;;;;14.44;56.49;94477.34;4885905;29;20333;-88
2024/03/15 07:18:28;;;;;;;2.85;1.30;;;;;;;14.44;55.67;94443.69;4875096;29;20210;-88
2024/03/15 07:26:28;;;;;;;2.80;1.77;;;;;;;14.35;55.37;94439.88;4859858;29;20493;-87
2024/03/15 07:29:09;;;;;;;2.20;1.30;;;;;;;14.34;55.69;94458.22;4877925;29;20241;-88
2024/03/15 07:32:03;;;;;;;2.67;1.30;;;;;;;14.37;55.72;94457.75;4874233;29;20748;-87
2024/03/15 07:34:40;;;;;;;2.20;1.30;;;;;;;14.13;55.60;94429.31;4896500;29;20211;-88
2024/03/15 07:37:25;;;;;;;1.58;1.10;;;;;;;14.06;55.86;94456.31;4882886;29;20216;-87
2024/03/15 07:40:37;;;;;;;2.45;1.30;;;;;;;14.21;56.06;94472.19;4896073;29;20282;-88
2024/03/15 07:43:18;;;;;;;1.83;1.30;;;;;;;14.39;55.75;94453.16;4887561;29;20206;-88
2024/03/15 07:46:05;;;;;;;4.35;1.38;;;;;;;14.57;55.87;94467.78;4887936;29;20205;-88
2024/03/15 07:51:46;;;;;;;3.67;1.40;;;;;;;14.91;54.86;94424.66;4877404;29;20206;-88
2024/03/15 07:57:04;;;;;;;1.92;1.20;;;;;;;14.97;54.42;94405.59;4853045;29;20302;-90
2024/03/15 07:59:38;;;;;;;1.40;1.30;;;;;;;14.93;54.62;94417.44;4882238;29;20230;-88
2024/03/15 08:02:23;;;;;;;4.45;1.35;;;;;;;14.87;54.70;94419.13;4882939;29;20210;-88
2024/03/15 08:08:11;;;;;;;1.27;1.15;;;;;;;14.72;55.32;94447.34;4887858;29;21080;-88
2024/03/15 08:10:41;;;;;;;2.00;1.30;;;;;;;14.94;55.04;94457.88;4887651;29;20218;-88
2024/03/15 08:13:17;;;;;;;2.63;1.30;;;;;;;15.49;54.52;94455.50;4881473;29;20202;-88
2024/03/15 08:19:16;;;;;;;2.63;1.23;;;;;;;15.81;52.46;94326.00;4897430;29;20225;-87
2024/03/15 08:21:56;;;;;;;1.70;1.60;;;;;;;15.93;52.60;94350.06;4898698;29;20213;-88
2024/03/15 08:24:28;;;;;;;1.98;1.33;;;;;;;15.92;52.52;94329.53;4875215;29;20281;-88
2024/03/15 08:27:34;;;;;;;1.83;1.40;;;;;;;15.79;52.74;94330.63;4894241;29;20857;-87
2024/03/15 08:30:17;;;;;;;4.35;1.42;;;;;;;15.72;52.91;94343.81;4840070;29;20224;-86
2024/03/15 08:32:57;;;;;;;4.30;1.40;;;;;;;15.64;53.55;94390.13;4881415;29;20213;-89
2024/03/15 08:38:27;;;;;;;2.28;1.60;;;;;;;15.44;53.94;94408.72;4878692;29;20246;-89
2024/03/15 08:43:51;;;;;;;1.50;1.40;;;;;;;15.41;54.01;94420.34;4879845;29;20205;-89
2024/03/15 08:46:25;;;;;;;1.50;1.35;;;;;;;15.28;54.21;94425.03;4881141;29;20221;-88
2024/03/15 08:48:53;;;;;;;1.80;1.48;;;;;;;15.26;54.56;94450.41;4881475;29;20222;-89
2024/03/15 08:54:18;;;;;;;3.22;1.60;;;;;;;15.46;54.32;94455.97;4859699;29;20296;-89
2024/03/15 08:56:54;;;;;;;2.17;1.33;;;;;;;15.52;54.32;94460.22;4866877;29;20210;-89
2024/03/15 09:05:08;;;;;;;1.50;1.40;;;;;;;15.46;54.60;94468.94;4881184;29;20228;-90
2024/03/15 09:10:37;;;;;;;1.40;1.30;;;;;;;15.63;54.49;94482.72;4880153;29;20233;-89
2024/03/15 09:13:19;;;;;;;;;;;;;;;;;;;;;
2024/03/15 09:19:00;;;;;;;3.40;1.52;;;;;;;15.71;55.21;94516.09;4889858;29;20300;-89
2024/03/15 09:21:45;;;;;;;1.60;1.50;;;;;;;15.54;55.72;94543.78;4903610;29;20470;-89
2024/03/15 09:24:13;;;;;;;2.58;1.30;;;;;;;15.49;55.98;94562.63;4901035;29;20580;-90
2024/03/15 09:26:47;;;;;;;5.15;1.70;;;;;;;15.41;56.14;94582.97;4897177;29;20209;-87
2024/03/15 09:34:43;;;;;;;2.95;2.00;;;;;;;14.97;57.95;94660.41;1211286;27;20225;-88
2024/03/15 09:37:46;;;;;;;2.10;1.60;;;;;;;14.95;57.91;94669.41;4858978;29;20215;-85
2024/03/15 09:40:44;;;;;;;;;;;;;;;;;;;;;
2024/03/15 09:43:23;;;;;;;1.95;1.70;;;;;;;14.76;58.69;94703.19;4847155;29;20234;-87
2024/03/15 09:49:25;;;;;;;;;;;;;;;;;;;;;
2024/03/15 09:52:14;;;;;;;2.03;1.75;;;;;;;14.56;63.66;94933.28;4781657;29;20209;-86
2024/03/15 09:54:48;;;;;;;2.10;1.90;;;;;;;14.44;67.03;95061.91;4793739;29;20209;-88
2024/03/15 09:57:20;;;;;;;4.35;2.15;;;;;;;14.37;69.00;95125.91;4844602;29;20578;-86
2024/03/15 10:03:12;;;;;;;1.90;1.70;;;;;;;14.36;70.53;95179.50;4827927;29;20727;-87
2024/03/15 10:09:17;;;;;;;3.47;2.08;;;;;;;14.36;70.93;95184.66;4808126;29;20233;-88
2024/03/15 10:17:43;;;;;;;3.03;1.95;;;;;;;14.47;70.43;95175.44;4791950;29;20214;-87
2024/03/15 10:20:22;;;;;;;1.85;1.70;;;;;;;14.43;71.25;95184.66;4811328;29;20255;-85
2024/03/15 10:22:59;;;;;;;2.50;1.90;;;;;;;14.46;70.64;95174.66;4812801;29;20264;-86
2024/03/15 10:25:37;;;;;;;2.03;1.67;;;;;;;14.60;70.30;95159.81;4866212;29;20242;-86
2024/03/15 10:34:24;;;;;;;2.40;1.92;;;;;;;14.94;68.42;95100.72;4863807;29;20211;-88
2024/03/15 10:37:10;;;;;;;3.05;1.95;;;;;;;14.91;67.21;95064.84;4868141;29;20210;-88
2024/03/15 10:39:37;;;;;;;2.13;1.92;;;;;;;14.94;67.72;95064.41;4867380;29;20223;-85
2024/03/15 10:42:18;;;;;;;;;;;;;;;;;;;;;
2024/03/15 10:47:33;;;;;;;2.30;1.70;;;;;;;15.39;67.32;95080.47;4860459;29;20342;-86
2024/03/15 10:53:04;;;;;;;2.95;2.05;;;;;;;15.84;64.89;94995.22;4823471;29;20212;-85
2024/03/15 10:58:46;;;;;;;2.22;1.98;;;;;;;15.81;63.37;94910.78;4878493;29;20739;-88
2024/03/15 11:01:22;;;;;;;2.58;2.00;;;;;;;15.79;62.96;94899.03;4867126;29;20221;-87
2024/03/15 11:03:57;;;;;;;4.70;1.98;;;;;;;16.07;62.89;94908.75;4865606;29;20218;-87
2024/03/15 11:09:50;;;;;;;2.30;2.08;;;;;;;16.14;61.76;94845.31;4858588;29;20282;-88
2024/03/15 11:12:33;;;;;;;;;;;;;;;;;;;;;
2024/03/15 11:21:21;;;;;;;2.88;1.65;;;;;;;16.71;60.73;94816.81;4871658;29;20405;-87
2024/03/15 11:24:11;;;;;;;4.90;2.28;;;;;;;17.16;59.59;94763.94;4884802;29;20221;-88
2024/03/15 11:32:49;;;;;;;3.00;2.28;;;;;;;17.63;57.73;94685.50;4893048;29;20243;-85
2024/03/15 11:38:35;;;;;;;;;;;;;;;;;;;;;
2024/03/15 11:41:10;;;;;;;2.88;2.30;;;;;;;17.89;56.86;94624.91;4874754;29;20202;-89
2024/03/15 11:44:05;;;;;;;2.97;2.40;;;;;;;17.69;55.97;94562.22;4869426;29;20210;-84
2024/03/15 11:49:52;;;;;;;3.17;2.88;;;;;;;17.22;55.85;94549.69;4854346;29;20749;-88
2024/03/15 11:53:04;;;;;;;;;;;;;;;;;;;;;
2024/03/15 11:58:29;;;;;;;2.38;2.15;;;;;;;17.34;55.50;94531.34;4865763;29;20210;-88
2024/03/15 12:01:06;;;;;;;2.50;2.17;;;;;;;17.58;54.87;94491.78;4863477;29;20293;-89
2024/03/15 12:09:34;;;;;;;2.15;1.95;;;;;;;17.72;53.41;94434.91;4878756;29;20230;-86
2024/03/15 12:12:25;;;;;;;2.50;2.30;;;;;;;17.80;53.44;94428.47;4880007;29;20191;-87
2024/03/15 12:17:55;;;;;;;2.38;2.17;;;;;;;17.98;53.02;94407.25;4851841;29;20692;-85
2024/03/15 12:20:44;;;;;;;2.60;2.40;;;;;;;18.19;52.32;94375.06;4862870;29;20231;-88
2024/03/15 12:24:14;;;;;;;2.38;2.17;;;;;;;18.25;52.52;94355.81;4832773;29;20635;-86
2024/03/15 12:27:21;;;;;;;3.15;2.35;;;;;;;18.37;52.20;94352.22;4880340;29;20305;-86
2024/03/15 12:33:21;;;;;;;2.22;2.03;;;;;;;18.24;52.55;94369.09;4840591;29;20206;-86
2024/03/15 12:36:01;;;;;;;3.00;2.13;;;;;;;18.32;51.71;94326.91;4863336;29;20214;-86
2024/03/15 12:42:05;;;;;;;2.05;1.90;;;;;;;18.88;51.19;94307.00;4859816;29;20319;-88
2024/03/15 12:44:51;;;;;;;3.53;2.20;;;;;;;19.10;50.20;94228.50;4878878;29;20645;-88
2024/03/15 12:47:32;;;;;;;2.50;2.20;;;;;;;19.11;49.58;94188.31;4861512;29;20218;-88
2024/03/15 12:50:04;;;;;;;3.53;1.88;;;;;;;19.06;49.71;94182.31;4859201;29;20322;-88
2024/03/15 12:53:13;;;;;;;2.28;1.92;;;;;;;19.16;49.29;94167.44;4862634;29;20305;-89
2024/03/15 12:55:52;;;;;;;2.17;1.70;;;;;;;18.89;49.19;94130.44;4881244;29;20560;-84
2024/03/15 12:58:27;;;;;;;2.17;1.98;;;;;;;18.53;49.44;94155.72;4854090;29;20250;-88
2024/03/15 13:14:58;;;;;;;3.33;2.05;;;;;;;18.84;47.91;94081.72;4864067;29;20278;-85
2024/03/15 13:20:46;;;;;;;2.65;1.58;;;;;;;19.14;46.87;94002.56;4847311;29;20283;-87
2024/03/15 13:23:29;;;;;;;2.45;1.75;;;;;;;19.19;46.23;93967.84;4863698;29;20207;-86
2024/03/15 13:26:22;;;;;;;;;;;;;;;;;;;;;
2024/03/15 13:29:06;;;;;;;2.65;1.77;;;;;;;19.76;45.87;93984.75;4865447;29;20237;-86
2024/03/15 13:37:27;;;;;;;1.45;1.33;;;;;;;19.41;44.16;93855.22;4859937;29;20310;-87
2024/03/15 13:39:54;;;;;;;2.05;1.70;;;;;;;19.66;44.28;93871.47;4862449;29;20224;-86
2024/03/15 13:42:30;;;;;;;2.08;1.75;;;;;;;19.79;44.82;93904.03;4859709;29;20207;-85
2024/03/15 13:45:25;;;;;;;2.72;1.58;;;;;;;19.80;45.06;93931.69;4862208;29;20275;-87
2024/03/15 13:48:18;;;;;;;2.60;1.50;;;;;;;20.01;44.77;93924.47;4875172;29;20721;-87
2024/03/15 14:05:22;;;;;;;1.73;1.63;;;;;;;19.40;43.42;93797.03;4861055;29;20234;-86
2024/03/15 14:14:06;;;;;;;1.60;1.50;;;;;;;19.57;44.55;93882.78;4873454;29;20761;-86
2024/03/15 14:16:50;;;;;;;1.90;1.50;;;;;;;19.46;44.56;93894.31;4864601;29;20211;-87
2024/03/15 14:19:55;;;;;;;3.47;1.55;;;;;;;19.62;45.09;93903.66;4863984;29;20258;-86
2024/03/15 14:25:15;;;;;;;1.67;1.38;;;;;;;19.54;44.47;93854.63;4862083;29;20293;-87
2024/03/15 14:30:42;;;;;;;2.00;1.75;;;;;;;19.12;45.37;93920.38;4863669;29;20258;-86
2024/03/15 14:33:35;;;;;;;1.90;1.60;;;;;;;19.06;46.02;93952.75;4862237;29;20298;-86
2024/03/15 14:36:18;;;;;;;;;;;;;;;;;;;;;
2024/03/15 14:39:03;;;;;;;1.85;1.42;;;;;;;19.35;45.87;93965.91;4867233;29;20242;-87
2024/03/15 14:41:56;;;;;;;2.53;1.73;;;;;;;19.21;45.53;93931.81;4865942;29;20297;-85
2024/03/15 14:44:50;;;;;;;1.73;1.35;;;;;;;19.29;46.00;93965.94;4874460;29;20215;-88
2024/03/15 14:47:41;;;;;;;3.08;1.50;;;;;;;19.23;46.54;93985.31;4869922;29;20733;-87
2024/03/15 14:50:28;;;;;;;2.15;1.60;;;;;;;18.99;46.60;93986.97;4882198;29;20231;-88
2024/03/15 14:53:32;;;;;;;1.73;1.60;;;;;;;18.68;46.72;93988.91;4871294;29;20210;-90
2024/03/15 14:56:02;;;;;;;1.70;1.55;;;;;;;18.49;47.27;94029.56;4886231;29;20209;-89
2024/03/15 14:58:50;;;;;;;1.98;1.55;;;;;;;18.46;47.61;94059.56;4882677;29;20317;-89
2024/03/15 15:01:21;;;;;;;3.00;1.65;;;;;;;18.40;47.96;94065.84;4884796;29;20750;-89
2024/03/15 15:03:52;;;;;;;3.42;1.15;;;;;;;18.38;47.97;94083.53;4884266;29;20214;-89
2024/03/15 15:06:26;;;;;;;1.83;1.50;;;;;;;18.34;48.47;94099.97;4883046;29;20269;-90
2024/03/15 15:09:03;;;;;;;2.17;1.65;;;;;;;18.04;48.66;94105.94;4885002;29;20720;-89
2024/03/15 15:11:43;;;;;;;1.83;1.65;;;;;;;17.93;49.21;94137.16;4884007;29;20622;-90
2024/03/15 15:14:10;;;;;;;2.70;1.60;;;;;;;17.99;49.50;94158.00;4865169;29;20388;-86
2024/03/15 15:16:59;;;;;;;1.83;1.50;;;;;;;17.82;49.60;94173.84;4864199;29;20327;-87
2024/03/15 15:19:37;;;;;;;2.38;1.63;;;;;;;17.64;49.67;94171.69;4868920;29;20251;-87
2024/03/15 15:22:09;;;;;;;3.05;1.70;;;;;;;17.57;49.95;94206.50;4867296;29;20210;-86
2024/03/15 15:24:44;;;;;;;2.03;1.60;;;;;;;17.58;50.05;94207.31;4865245;29;20581;-88
2024/03/15 15:27:19;;;;;;;1.80;1.67;;;;;;;17.56;50.36;94204.16;4866556;29;20297;-84
2024/03/15 15:30:11;;;;;;;3.20;1.70;;;;;;;17.57;50.08;94195.31;4864619;29;20257;-88
2024/03/15 15:38:26;;;;;;;2.55;2.00;;;;;;;17.40;52.42;94328.19;4868371;29;20731;-87
2024/03/15 15:41:09;;;;;;;2.97;1.63;;;;;;;17.40;52.95;94366.44;4862947;29;20207;-89
2024/03/15 15:46:28;;;;;;;3.72;2.08;;;;;;;17.04;58.08;94628.03;4846786;29;20207;-85
2024/03/15 15:49:03;;;;;;;5.65;2.00;;;;;;;16.98;58.19;94647.16;4867548;29;20226;-88
2024/03/15 15:51:43;;;;;;;4.80;1.90;;;;;;;16.95;58.12;94634.63;4886747;29;20203;-87
2024/03/15 15:57:21;;;;;;;2.35;2.00;;;;;;;17.10;57.63;94614.06;4870578;29;20210;-87
2024/03/15 15:59:59;;;;;;;2.70;1.90;;;;;;;17.34;57.25;94617.19;4882810;29;20546;-86
2024/03/15 16:02:32;;;;;;;4.50;1.98;;;;;;;17.46;56.94;94597.84;4879225;29;20198;-87
2024/03/15 16:05:14;;;;;;;3.35;1.90;;;;;;;17.52;56.47;94567.44;4877407;29;20274;-87
2024/03/15 16:07:45;;;;;;;2.88;2.33;;;;;;;17.42;57.20;94591.56;4881113;29;20207;-86
2024/03/15 16:10:20;;;;;;;2.25;1.88;;;;;;;17.19;57.76;94620.41;4881343;29;20257;-87
2024/03/15 16:13:11;;;;;;;5.43;2.47;;;;;;;17.10;58.35;94640.84;4875191;29;20215;-87
2024/03/15 16:15:45;;;;;;;3.22;1.95;;;;;;;16.87;58.39;94662.63;4880442;29;20266;-87
2024/03/15 16:18:23;;;;;;;3.20;2.00;;;;;;;16.71;58.56;94645.25;4863664;29;20266;-87
2024/03/15 16:21:32;;;;;;;;;;;;;;;;;;;;;
2024/03/15 16:24:11;;;;;;;2.35;2.00;;;;;;;16.64;58.03;94646.41;4884448;29;20218;-87
2024/03/15 16:27:00;;;;;;;2.10;1.90;;;;;;;16.63;57.23;94642.22;4866773;29;20218;-87
2024/03/15 16:32:17;;;;;;;1.50;1.38;;;;;;;16.19;55.34;94509.56;4852029;29;20698;-86
2024/03/15 16:35:11;;;;;;;2.25;1.48;;;;;;;16.11;56.87;94595.66;4862874;29;20215;-86
2024/03/15 16:37:49;;;;;;;4.18;1.95;;;;;;;15.89;58.75;94696.78;4881787;29;20218;-86
2024/03/15 16:40:35;;;;;;;;;;;;;;;;;;;;;
2024/03/15 16:43:19;;;;;;;6.90;1.70;;;;;;;15.71;61.73;94837.09;4850859;29;20529;-85
2024/03/15 16:49:12;;;;;;;3.70;1.92;;;;;;;15.58;64.17;94928.94;4836248;29;20631;-88
2024/03/15 16:51:46;;;;;;;2.70;1.75;;;;;;;15.57;65.50;94970.69;4852568;29;20210;-90
2024/03/15 16:57:12;;;;;;;3.50;2.00;;;;;;;15.46;67.04;95021.50;4851567;29;20620;-87
2024/03/15 16:59:56;;;;;;;1.98;1.77;;;;;;;15.46;67.22;95037.06;4865505;29;20782;-87
2024/03/15 17:02:37;;;;;;;3.30;2.00;;;;;;;15.37;67.72;95043.56;4864894;29;20203;-87
2024/03/15 17:05:14;;;;;;;4.15;2.08;;;;;;;15.36;67.89;95050.56;4861700;29;20214;-88
2024/03/15 17:08:17;;;;;;;3.78;2.20;;;;;;;15.29;69.16;95091.34;4864373;29;20210;-87
2024/03/15 17:10:59;;;;;;;5.32;2.80;;;;;;;15.24;70.57;95135.28;4870423;29;20689;-88
2024/03/15 17:14:04;;;;;;;4.13;2.17;;;;;;;15.21;71.09;95138.31;4865541;29;20348;-88
2024/03/15 17:16:46;;;;;;;4.75;2.75;;;;;;;15.16;71.58;95148.56;4871871;29;20293;-87
2024/03/15 17:22:11;;;;;;;3.95;2.63;;;;;;;15.12;72.36;95181.91;4866169;29;20757;-88
2024/03/15 17:25:13;;;;;;;7.13;3.63;;;;;;;15.11;73.24;95184.69;4862733;29;20220;-87
2024/03/15 17:28:11;;;;;;;4.30;3.03;;;;;;;15.09;72.26;95160.78;4878036;29;20206;-87
2024/03/15 17:30:41;;;;;;;4.03;2.53;;;;;;;15.09;71.77;95156.38;4868362;29;20274;-89
2024/03/15 17:33:23;;;;;;;3.75;2.38;;;;;;;15.15;71.15;95134.00;4862093;29;20230;-89
2024/03/15 17:41:38;;;;;;;5.05;2.50;;;;;;;15.23;68.58;95058.47;4853854;29;20203;-88
2024/03/15 17:44:16;;;;;;;4.40;2.58;;;;;;;15.26;67.52;95024.34;4869209;29;20222;-90
2024/03/15 17:46:52;;;;;;;5.07;2.85;;;;;;;15.23;66.92;95006.63;4844950;29;20203;-89
2024/03/15 17:49:26;;;;;;;6.78;3.72;;;;;;;15.20;66.97;95002.66;4854467;29;20226;-90
2024/03/15 17:52:01;;;;;;;5.40;3.95;;;;;;;15.21;67.39;95012.03;4863260;29;20940;-89
2024/03/15 17:54:45;;;;;;;5.40;3.95;;;;;;;15.25;67.30;95024.56;4862660;29;20245;-89
2024/03/15 17:57:29;;;;;;;5.25;4.43;;;;;;;15.26;66.57;95001.00;4861954;29;20222;-90
2024/03/15 18:03:10;;;;;;;11.57;5.55;;;;;;;15.32;66.48;95001.94;4877489;29;20313;-90
2024/03/15 18:05:44;;;;;;;7.45;5.90;;;;;;;15.27;66.80;94997.41;4861034;29;20669;-88
2024/03/15 18:13:55;;;;;;;;;;;;;;;;;;;;;
2024/03/15 18:16:34;;;;;;;4.68;3.58;;;;;;;15.25;65.95;94980.47;4850846;29;20581;-89
2024/03/15 18:19:04;;;;;;;3.90;3.30;;;;;;;15.19;65.40;94980.34;4866409;29;20226;-91
2024/03/15 18:24:55;;;;;;;5.68;4.20;;;;;;;15.16;66.13;95009.31;4871712;29;20214;-92
2024/03/15 18:32:59;;;;;;;5.00;3.88;;;;;;;15.18;67.27;95048.78;4856588;29;20214;-90
2024/03/15 18:35:42;;;;;;;6.50;4.30;;;;;;;15.16;67.09;95050.00;4864333;29;20211;-90
2024/03/15 18:38:41;;;;;;;8.10;4.82;;;;;;;15.09;67.34;95051.88;4867643;29;20290;-89
2024/03/15 18:41:23;;;;;;;5.85;4.75;;;;;;;15.06;67.40;95057.50;4888185;29;20207;-90
2024/03/15 18:43:49;;;;;;;6.75;4.15;;;;;;;15.08;67.47;95055.47;4867763;29;20206;-90
2024/03/15 18:46:53;;;;;;;6.15;3.92;;;;;;;15.09;67.27;95060.44;4864729;29;20631;-90
2024/03/15 18:49:23;;;;;;;9.40;6.55;;;;;;;15.04;68.54;95104.38;4884595;29;20232;-91
2024/03/15 18:52:24;;;;;;;11.50;7.68;;;;;;;15.03;68.34;95104.59;4864384;29;20421;-91
2024/03/15 18:55:14;;;;;;;6.32;5.30;;;;;;;14.96;68.54;95125.41;4883269;29;20209;-90
2024/03/15 18:57:56;;;;;;;7.40;4.95;;;;;;;14.92;68.46;95108.69;4864900;29;20206;-89
2024/03/15 19:00:38;;;;;;;8.25;4.13;;;;;;;14.95;67.29;95078.97;4865882;29;20230;-89
2024/03/15 19:05:49;;;;;;;4.60;4.03;;;;;;;14.96;66.85;95070.19;4861595;29;20219;-91
2024/03/15 19:08:41;;;;;;;;;;;;;;;;;;;;;
2024/03/15 19:11:36;;;;;;;;;;;;;;;;;;;;;